Time;durP1;ratioP1;P1;durP2;ratioP2;P2;SDS_P1;SDS_P2;PMS_P1;PMS_P2;Temp;Humidity;BMP_temperature;BMP_pressure;BME280_temperature;BME280_humidity;BME280_pressure;Samples;Min_cycle;Max_cycle;Signal;HPM_P1;HPM_P2
2022/05/18 00:00:05;;;;;;;;;;;;;;;23.31;63.95;98941.47;2074066;28;20587;-47
2022/05/18 00:01:08;;;;;;;;;;;;;;;23.32;64.00;98939.63;2076802;28;20426;-48
2022/05/18 00:02:09;;;;;;;;;;;;;;;23.31;64.35;98938.75;2075333;28;19929;-46
2022/05/18 00:03:12;;;;;;;;;;;;;;;23.30;64.27;98942.53;2076115;28;20557;-48
2022/05/18 00:04:12;;;;;;;;;;;;;;;23.31;64.18;98946.06;2073938;28;20554;-46
2022/05/18 00:05:14;;;;;;;;;;;;;;;23.31;64.15;98938.75;2075459;28;19932;-46
2022/05/18 00:06:16;;;;;;;;;;;;;;;23.31;64.15;98943.34;2074780;28;19940;-46
2022/05/18 00:07:17;;;;;;;;;;;;;;;23.32;64.18;98948.56;2073745;28;19925;-50
2022/05/18 00:08:18;;;;;;;;;;;;;;;23.30;64.46;98941.72;2075156;28;19928;-47
2022/05/18 00:09:19;;;;;;;;;;;;;;;23.29;64.43;98940.91;2074772;28;19956;-50
2022/05/18 00:10:21;;;;;;;;;;;;;;;23.31;64.28;98943.34;2076036;28;19936;-48
2022/05/18 00:11:22;;;;;;;;;;;;;;;23.30;64.28;98945.25;2073580;28;20544;-49
2022/05/18 00:12:23;;;;;;;;;;;;;;;23.31;64.11;98938.75;2072591;28;19937;-51
2022/05/18 00:13:25;;;;;;;;;;;;;;;23.30;63.99;98942.53;2074897;28;19937;-49
2022/05/18 00:14:25;;;;;;;;;;;;;;;23.32;64.18;98939.63;2076718;28;19932;-50
2022/05/18 00:15:27;;;;;;;;;;;;;;;23.32;64.00;98934.22;2075454;28;19940;-48
2022/05/18 00:16:28;;;;;;;;;;;;;;;23.32;64.02;98945.84;2074222;28;19956;-47
2022/05/18 00:17:29;;;;;;;;;;;;;;;23.32;64.20;98940.44;2075381;28;19940;-50
2022/05/18 00:18:31;;;;;;;;;;;;;;;23.32;64.08;98943.16;2075814;28;19968;-47
2022/05/18 00:19:33;;;;;;;;;;;;;;;23.33;64.43;98947.50;2073893;28;20398;-47
2022/05/18 00:20:34;;;;;;;;;;;;;;;23.32;64.34;98945.03;2076747;28;19952;-49
2022/05/18 00:21:36;;;;;;;;;;;;;;;23.30;64.41;98942.53;2076208;28;19925;-49
2022/05/18 00:22:42;;;;;;;;;;;;;;;23.32;64.25;98945.03;2076396;28;19937;-48
2022/05/18 00:23:45;;;;;;;;;;;;;;;23.31;64.23;98944.19;2075802;28;20011;-48
2022/05/18 00:24:45;;;;;;;;;;;;;;;23.31;64.40;98944.19;2075954;28;19929;-47
2022/05/18 00:25:47;;;;;;;;;;;;;;;23.31;64.32;98938.75;2074643;28;19933;-48
2022/05/18 00:26:48;;;;;;;;;;;;;;;23.32;64.67;98934.22;2076436;28;20402;-48
2022/05/18 00:27:49;;;;;;;;;;;;;;;23.31;64.35;98937.94;2075255;28;19925;-49
2022/05/18 00:28:50;;;;;;;;;;;;;;;23.31;64.58;98941.47;2073187;28;20066;-50
2022/05/18 00:29:51;;;;;;;;;;;;;;;23.31;64.23;98938.75;2076101;28;20817;-52
2022/05/18 00:30:52;;;;;;;;;;;;;;;23.30;64.53;98944.41;2074285;28;19962;-47
2022/05/18 00:31:53;;;;;;;;;;;;;;;23.31;64.23;98941.47;2076214;28;19937;-49
2022/05/18 00:32:54;;;;;;;;;;;;;;;23.31;64.34;98943.34;2076008;28;19929;-49
2022/05/18 00:33:57;;;;;;;;;;;;;;;23.32;64.25;98940.44;2074367;28;19925;-48
2022/05/18 00:34:58;;;;;;;;;;;;;;;23.32;64.24;98936.91;2067746;28;20024;-48
2022/05/18 00:35:59;;;;;;;;;;;;;;;23.31;64.43;98946.88;2075336;28;19929;-48
2022/05/18 00:37:00;;;;;;;;;;;;;;;23.31;64.33;98944.19;2073915;28;19932;-48
2022/05/18 00:38:01;;;;;;;;;;;;;;;23.30;64.44;98939.81;2073838;28;20600;-49
2022/05/18 00:39:02;;;;;;;;;;;;;;;23.29;64.45;98940.91;2060630;28;19978;-52
2022/05/18 00:40:04;;;;;;;;;;;;;;;23.28;64.54;98936.50;2073274;28;19986;-49
2022/05/18 00:41:04;;;;;;;;;;;;;;;23.29;64.51;98940.03;2073472;28;19957;-49
2022/05/18 00:42:07;;;;;;;;;;;;;;;23.29;64.81;98932.78;2074887;28;19936;-48
2022/05/18 00:43:15;;;;;;;;;;;;;;;23.27;64.56;98934.88;2075635;28;20001;-47
2022/05/18 00:44:17;;;;;;;;;;;;;;;23.28;64.75;98928.41;2072167;28;19933;-47
2022/05/18 00:45:17;;;;;;;;;;;;;;;23.28;64.75;98933.81;2075505;28;20820;-48
2022/05/18 00:46:19;;;;;;;;;;;;;;;23.27;64.85;98934.88;2075822;28;19929;-50
2022/05/18 00:47:20;;;;;;;;;;;;;;;23.30;64.53;98930.88;2072071;28;19936;-49
2022/05/18 00:48:21;;;;;;;;;;;;;;;23.29;64.60;98931.91;2074075;28;19935;-47
2022/05/18 00:49:24;;;;;;;;;;;;;;;23.29;64.61;98930.06;2074456;28;20306;-50
2022/05/18 00:50:27;;;;;;;;;;;;;;;23.29;64.73;98927.38;2074352;28;19932;-49
2022/05/18 00:51:30;;;;;;;;;;;;;;;23.29;64.83;98929.22;2075602;28;19929;-51
2022/05/18 00:52:34;;;;;;;;;;;;;;;23.30;64.67;98920.06;2075330;28;19932;-48
2022/05/18 00:53:37;;;;;;;;;;;;;;;23.29;64.77;98923.81;2075059;28;19929;-50
2022/05/18 00:54:38;;;;;;;;;;;;;;;23.29;64.75;98923.81;2074091;28;19931;-49
2022/05/18 00:55:42;;;;;;;;;;;;;;;23.27;65.24;98915.13;2075662;28;19929;-48
2022/05/18 00:56:47;;;;;;;;;;;;;;;23.29;64.83;98921.09;2075313;28;19980;-47
2022/05/18 00:57:50;;;;;;;;;;;;;;;23.27;65.00;98921.34;2073451;28;20045;-49
2022/05/18 00:58:55;;;;;;;;;;;;;;;23.28;64.88;98922.97;2073582;28;19943;-48
2022/05/18 00:59:58;;;;;;;;;;;;;;;23.28;65.07;98919.47;2073963;28;19925;-48
2022/05/18 01:01:00;;;;;;;;;;;;;;;23.29;64.70;98926.50;2074476;28;19929;-49
2022/05/18 01:02:01;;;;;;;;;;;;;;;23.29;64.78;98924.66;2074588;28;19929;-49
2022/05/18 01:03:06;;;;;;;;;;;;;;;23.28;64.88;98920.28;2074408;28;19933;-52
2022/05/18 01:04:08;;;;;;;;;;;;;;;23.29;64.70;98927.38;2076686;28;19929;-48
2022/05/18 01:05:12;;;;;;;;;;;;;;;23.29;64.90;98932.78;2073944;28;19932;-47
2022/05/18 01:06:17;;;;;;;;;;;;;;;23.28;64.99;98931.09;2075345;28;19929;-50
2022/05/18 01:07:22;;;;;;;;;;;;;;;23.29;65.04;98934.63;2073525;28;19929;-51
2022/05/18 01:08:26;;;;;;;;;;;;;;;23.30;65.09;98930.88;2072744;28;20019;-50
2022/05/18 01:09:30;;;;;;;;;;;;;;;23.31;65.05;98927.13;2071424;28;19960;-49
2022/05/18 01:10:31;;;;;;;;;;;;;;;23.28;64.92;98928.41;2075071;28;19936;-50
2022/05/18 01:11:33;;;;;;;;;;;;;;;23.27;65.11;98921.34;2074255;28;20534;-51
2022/05/18 01:12:34;;;;;;;;;;;;;;;23.28;65.06;98928.41;2074489;28;19933;-49
2022/05/18 01:13:35;;;;;;;;;;;;;;;23.27;64.97;98932.16;2075367;28;19929;-49
2022/05/18 01:14:39;;;;;;;;;;;;;;;23.29;64.73;98923.81;2074354;28;19929;-51
2022/05/18 01:15:40;;;;;;;;;;;;;;;23.28;64.90;98936.50;2074832;28;19947;-51
2022/05/18 01:16:41;;;;;;;;;;;;;;;23.27;64.95;98929.47;2073269;28;19936;-52
2022/05/18 01:17:46;;;;;;;;;;;;;;;23.27;65.09;98929.47;2073701;28;19929;-51
2022/05/18 01:18:49;;;;;;;;;;;;;;;23.27;65.18;98926.75;2072377;28;19929;-49
2022/05/18 01:19:50;;;;;;;;;;;;;;;23.27;65.23;98932.16;2064638;28;19929;-49
2022/05/18 01:20:53;;;;;;;;;;;;;;;23.27;65.02;98923.22;2072186;28;19980;-47
2022/05/18 01:21:58;;;;;;;;;;;;;;;23.27;65.22;98920.53;2073526;28;19960;-48
2022/05/18 01:23:05;;;;;;;;;;;;;;;23.26;65.19;98922.38;2075697;28;19960;-49
2022/05/18 01:24:09;;;;;;;;;;;;;;;23.27;65.13;98929.47;2074225;28;19929;-49
2022/05/18 01:25:17;;;;;;;;;;;;;;;23.27;65.23;98924.06;2070566;28;19933;-49
2022/05/18 01:26:21;;;;;;;;;;;;;;;23.27;65.75;98926.75;2073912;28;19982;-50
2022/05/18 01:27:23;;;;;;;;;;;;;;;23.27;65.13;98926.75;2073737;28;19931;-48
2022/05/18 01:28:25;;;;;;;;;;;;;;;23.26;65.26;98922.38;2072237;28;20546;-49
2022/05/18 01:29:29;;;;;;;;;;;;;;;23.29;64.97;98921.09;2074487;28;19933;-47
2022/05/18 01:30:31;;;;;;;;;;;;;;;23.27;65.34;98915.94;2074681;28;19929;-49
2022/05/18 01:31:41;;;;;;;;;;;;;;;23.27;64.90;98913.22;2073584;28;19933;-50
2022/05/18 01:32:43;;;;;;;;;;;;;;;23.28;65.28;98920.28;2074503;28;19964;-49
2022/05/18 01:33:44;;;;;;;;;;;;;;;23.27;65.26;98921.34;2074300;28;19960;-48
2022/05/18 01:34:45;;;;;;;;;;;;;;;23.26;65.41;98924.25;2073545;28;19929;-47
2022/05/18 01:35:48;;;;;;;;;;;;;;;23.26;64.95;98925.09;2073181;28;19947;-49
2022/05/18 01:36:49;;;;;;;;;;;;;;;23.26;65.17;98927.78;2072067;28;19929;-49
2022/05/18 01:37:51;;;;;;;;;;;;;;;23.26;65.23;98929.69;2074135;28;20498;-52
2022/05/18 01:38:51;;;;;;;;;;;;;;;23.25;65.17;98926.16;2073778;28;19936;-50
2022/05/18 01:39:56;;;;;;;;;;;;;;;23.25;65.06;98928.03;2074434;28;19935;-53
2022/05/18 01:40:59;;;;;;;;;;;;;;;23.25;64.95;98930.75;2074379;28;19929;-48
2022/05/18 01:42:04;;;;;;;;;;;;;;;23.25;64.95;98919.91;2073290;28;19940;-49
2022/05/18 01:43:10;;;;;;;;;;;;;;;23.24;65.58;98927.22;2074176;28;19925;-53
2022/05/18 01:44:12;;;;;;;;;;;;;;;23.24;64.96;98926.38;2074472;28;19932;-51
2022/05/18 01:45:13;;;;;;;;;;;;;;;23.25;65.19;98934.25;2073364;28;20462;-48
2022/05/18 01:46:15;;;;;;;;;;;;;;;23.24;65.20;98934.50;2075117;28;19925;-53
2022/05/18 01:47:16;;;;;;;;;;;;;;;23.23;65.22;98930.94;2072689;28;19929;-51
2022/05/18 01:48:18;;;;;;;;;;;;;;;23.24;65.23;98934.50;2074918;28;19955;-50
2022/05/18 01:49:19;;;;;;;;;;;;;;;23.23;65.13;98930.94;2074385;28;19979;-49
2022/05/18 01:50:24;;;;;;;;;;;;;;;23.23;65.62;98930.13;2070463;28;19929;-50
2022/05/18 01:51:27;;;;;;;;;;;;;;;23.23;65.46;98930.94;2074411;28;19925;-50
2022/05/18 01:52:29;;;;;;;;;;;;;;;23.23;65.04;98927.44;2075003;28;20513;-49
2022/05/18 01:53:30;;;;;;;;;;;;;;;23.23;65.33;98930.94;2075022;28;19925;-49
2022/05/18 01:54:36;;;;;;;;;;;;;;;23.24;65.27;98931.81;2073174;28;20064;-52
2022/05/18 01:55:37;;;;;;;;;;;;;;;23.23;65.23;98924.72;2075159;28;19952;-49
2022/05/18 01:56:38;;;;;;;;;;;;;;;23.24;65.11;98929.91;2074526;28;20443;-52
2022/05/18 01:57:39;;;;;;;;;;;;;;;23.23;65.19;98925.53;2075280;28;19925;-51
2022/05/18 01:58:42;;;;;;;;;;;;;;;23.23;65.13;98925.53;2074750;28;19925;-50
2022/05/18 01:59:42;;;;;;;;;;;;;;;23.22;65.08;98926.59;2073496;28;19937;-50
2022/05/18 02:00:45;;;;;;;;;;;;;;;23.23;65.07;98924.72;2073959;28;19951;-48
2022/05/18 02:01:45;;;;;;;;;;;;;;;23.22;65.12;98932.00;2074526;28;20016;-50
2022/05/18 02:02:47;;;;;;;;;;;;;;;23.23;65.12;98930.13;2073862;28;19929;-48
2022/05/18 02:03:48;;;;;;;;;;;;;;;23.23;65.23;98935.53;2073915;28;19979;-50
2022/05/18 02:04:49;;;;;;;;;;;;;;;23.22;65.22;98933.91;2074670;28;19940;-53
2022/05/18 02:05:51;;;;;;;;;;;;;;;23.21;65.24;98938.50;2075361;28;19935;-48
2022/05/18 02:06:52;;;;;;;;;;;;;;;23.22;65.19;98940.13;2073928;28;19952;-51
2022/05/18 02:07:54;;;;;;;;;;;;;;;23.20;65.27;98934.13;2073284;28;19940;-49
2022/05/18 02:08:54;;;;;;;;;;;;;;;23.22;65.62;98933.91;2073844;28;20519;-50
2022/05/18 02:09:56;;;;;;;;;;;;;;;23.22;65.29;98934.72;2074527;28;19933;-51
2022/05/18 02:10:56;;;;;;;;;;;;;;;23.22;65.18;98933.91;2074764;28;20087;-49
2022/05/18 02:11:58;;;;;;;;;;;;;;;23.22;65.20;98937.44;2074169;28;20104;-50
2022/05/18 02:12:58;;;;;;;;;;;;;;;23.21;65.13;98938.50;2071637;28;20307;-49
2022/05/18 02:14:01;;;;;;;;;;;;;;;23.20;65.40;98929.53;2072758;28;19925;-54
2022/05/18 02:15:03;;;;;;;;;;;;;;;23.23;65.17;98940.94;2073603;28;20335;-54
2022/05/18 02:16:05;;;;;;;;;;;;;;;23.22;65.31;98939.31;2074700;28;20322;-53
2022/05/18 02:17:06;;;;;;;;;;;;;;;23.20;65.19;98939.53;2074214;28;19991;-53
2022/05/18 02:18:07;;;;;;;;;;;;;;;23.20;65.10;98937.63;2073360;28;19929;-50
2022/05/18 02:19:08;;;;;;;;;;;;;;;23.22;65.12;98934.72;2074157;28;19932;-50
2022/05/18 02:20:11;;;;;;;;;;;;;;;23.21;65.09;98935.78;2075350;28;20032;-51
2022/05/18 02:21:11;;;;;;;;;;;;;;;23.21;65.23;98941.19;2072744;28;19925;-53
2022/05/18 02:22:13;;;;;;;;;;;;;;;23.21;65.19;98941.19;2074885;28;19961;-52
2022/05/18 02:23:13;;;;;;;;;;;;;;;23.20;64.99;98936.81;2074168;28;20299;-51
2022/05/18 02:24:15;;;;;;;;;;;;;;;23.20;65.23;98936.81;2073624;28;19925;-53
2022/05/18 02:25:15;;;;;;;;;;;;;;;23.19;65.04;98940.59;2074385;28;19929;-50
2022/05/18 02:26:18;;;;;;;;;;;;;;;23.19;65.11;98932.47;2074270;28;19969;-54
2022/05/18 02:27:19;;;;;;;;;;;;;;;23.19;65.34;98933.28;2074648;28;19936;-51
2022/05/18 02:28:20;;;;;;;;;;;;;;;23.19;65.16;98936.00;2074795;28;20398;-49
2022/05/18 02:29:22;;;;;;;;;;;;;;;23.19;65.21;98927.06;2074408;28;20396;-52
2022/05/18 02:30:24;;;;;;;;;;;;;;;23.18;65.26;98931.66;2074871;28;20383;-52
2022/05/18 02:31:24;;;;;;;;;;;;;;;23.18;64.95;98928.13;2072308;28;19983;-52
2022/05/18 02:32:26;;;;;;;;;;;;;;;23.19;65.10;98930.59;2071856;28;21757;-53
2022/05/18 02:33:27;;;;;;;;;;;;;;;23.19;65.05;98929.75;2072262;28;19933;-50
2022/05/18 02:34:29;;;;;;;;;;;;;;;23.20;65.03;98934.13;2072089;28;19936;-53
2022/05/18 02:35:29;;;;;;;;;;;;;;;23.18;65.12;98933.53;2073021;28;19932;-54
2022/05/18 02:36:31;;;;;;;;;;;;;;;23.20;65.06;98932.22;2074603;28;21436;-51
2022/05/18 02:37:32;;;;;;;;;;;;;;;23.20;64.93;98936.81;2074829;28;19968;-51
2022/05/18 02:38:33;;;;;;;;;;;;;;;23.20;64.99;98931.41;2075282;28;19933;-51
2022/05/18 02:39:34;;;;;;;;;;;;;;;23.19;65.20;98940.59;2074318;28;19968;-51
2022/05/18 02:40:35;;;;;;;;;;;;;;;23.19;65.17;98930.59;2073892;28;19929;-50
2022/05/18 02:41:36;;;;;;;;;;;;;;;23.20;65.09;98934.13;2073931;28;19925;-52
2022/05/18 02:42:37;;;;;;;;;;;;;;;23.18;65.12;98930.84;2075432;28;19935;-48
2022/05/18 02:43:38;;;;;;;;;;;;;;;23.16;65.30;98939.16;2074889;28;19964;-49
2022/05/18 02:44:41;;;;;;;;;;;;;;;23.18;64.79;98939.78;2072283;28;19936;-54
2022/05/18 02:45:41;;;;;;;;;;;;;;;23.19;65.10;98938.69;2074971;28;19982;-54
2022/05/18 02:46:43;;;;;;;;;;;;;;;23.17;65.02;98937.28;2074371;28;19933;-52
2022/05/18 02:47:43;;;;;;;;;;;;;;;23.16;65.56;98941.03;2076106;28;19940;-54
2022/05/18 02:48:46;;;;;;;;;;;;;;;23.15;65.37;98933.97;2076316;28;20454;-51
2022/05/18 02:49:46;;;;;;;;;;;;;;;23.17;65.44;98943.50;2074787;28;19960;-55
2022/05/18 02:50:48;;;;;;;;;;;;;;;23.16;65.29;98946.47;2075560;28;20462;-52
2022/05/18 02:51:48;;;;;;;;;;;;;;;23.15;65.25;98942.94;2074803;28;19932;-52
2022/05/18 02:52:50;;;;;;;;;;;;;;;23.15;65.20;98939.38;2075315;28;19967;-55
2022/05/18 02:53:51;;;;;;;;;;;;;;;23.16;65.18;98941.88;2075965;28;19936;-52
2022/05/18 02:56:12;;;;;;;;;;;;;;;23.15;65.37;98950.19;2073118;28;19926;-52
2022/05/18 02:57:14;;;;;;;;;;;;;;;23.13;65.38;98949.63;2075302;28;19933;-53
2022/05/18 02:58:14;;;;;;;;;;;;;;;23.13;65.31;98947.72;2075893;28;20941;-53
2022/05/18 02:59:16;;;;;;;;;;;;;;;23.15;65.37;98955.59;2075384;28;19929;-51
2022/05/18 03:00:19;;;;;;;;;;;;;;;23.13;65.22;98952.31;2077084;28;19933;-54
2022/05/18 03:01:21;;;;;;;;;;;;;;;23.14;65.17;98953.97;2075298;28;19976;-52
2022/05/18 03:02:23;;;;;;;;;;;;;;;23.14;65.33;98959.38;2075859;28;20572;-53
2022/05/18 03:03:23;;;;;;;;;;;;;;;23.13;65.24;98953.16;2071909;28;19929;-49
2022/05/18 03:04:25;;;;;;;;;;;;;;;23.14;65.40;98952.09;2075784;28;20414;-52
2022/05/18 03:05:26;;;;;;;;;;;;;;;23.13;65.56;98955.84;2075857;28;19967;-53
2022/05/18 03:06:27;;;;;;;;;;;;;;;23.11;65.72;98960.66;2075854;28;19929;-53
2022/05/18 03:07:28;;;;;;;;;;;;;;;23.13;65.34;98952.31;2074466;28;19960;-55
2022/05/18 03:08:30;;;;;;;;;;;;;;;23.12;65.57;98956.06;2075724;28;19933;-53
2022/05/18 03:09:31;;;;;;;;;;;;;;;23.13;65.70;98963.16;2074026;28;19933;-50
2022/05/18 03:10:32;;;;;;;;;;;;;;;23.12;65.68;98954.22;2073634;28;19932;-52
2022/05/18 03:11:33;;;;;;;;;;;;;;;23.14;65.60;98952.09;2075282;28;19925;-54
2022/05/18 03:12:34;;;;;;;;;;;;;;;23.14;65.38;98959.38;2074989;28;19929;-53
2022/05/18 03:13:35;;;;;;;;;;;;;;;23.12;65.91;98954.22;2074110;28;19925;-54
2022/05/18 03:14:37;;;;;;;;;;;;;;;23.11;65.77;98951.72;2074721;28;19931;-53
2022/05/18 03:15:39;;;;;;;;;;;;;;;23.11;65.60;98957.13;2075666;28;20003;-54
2022/05/18 03:16:43;;;;;;;;;;;;;;;23.10;65.68;98952.78;2075941;28;19926;-50
2022/05/18 03:17:45;;;;;;;;;;;;;;;23.10;65.37;98952.78;2073917;28;20295;-53
2022/05/18 03:18:45;;;;;;;;;;;;;;;23.12;65.56;98950.66;2074554;28;19964;-51
2022/05/18 03:19:47;;;;;;;;;;;;;;;23.11;65.32;98947.13;2071410;28;20302;-50
2022/05/18 03:23:35;;;;;;;;;;;;;;;23.13;65.42;98946.91;2076845;28;19929;-48
2022/05/18 03:24:36;;;;;;;;;;;;;;;23.14;65.59;98951.25;2076415;28;19952;-47
2022/05/18 03:25:37;;;;;;;;;;;;;;;23.15;65.25;98945.63;2075482;28;19932;-49
2022/05/18 03:26:39;;;;;;;;;;;;;;;23.13;65.79;98944.22;2075495;28;19965;-48
2022/05/18 03:27:40;;;;;;;;;;;;;;;23.13;65.37;98945.03;2075350;28;19932;-51
2022/05/18 03:28:43;;;;;;;;;;;;;;;23.12;65.55;98945.25;2074437;28;20028;-51
2022/05/18 03:29:43;;;;;;;;;;;;;;;23.13;65.67;98936.91;2076557;28;19936;-50
2022/05/18 03:30:46;;;;;;;;;;;;;;;23.13;65.54;98944.22;2075020;28;20012;-47
2022/05/18 03:31:48;;;;;;;;;;;;;;;23.11;65.97;98954.41;2075811;28;20429;-48
2022/05/18 03:32:49;;;;;;;;;;;;;;;23.09;65.95;98948.41;2076694;28;19961;-51
2022/05/18 03:33:50;;;;;;;;;;;;;;;23.11;65.79;98959.84;2077074;28;19925;-50
2022/05/18 03:34:52;;;;;;;;;;;;;;;23.10;65.70;98953.59;2076775;28;20521;-52
2022/05/18 03:35:52;;;;;;;;;;;;;;;23.10;65.84;98953.59;2075194;28;19968;-51
2022/05/18 03:36:54;;;;;;;;;;;;;;;23.11;65.60;98946.31;2074461;28;19933;-50
2022/05/18 03:37:54;;;;;;;;;;;;;;;23.12;65.83;98950.66;2076384;28;19925;-51
2022/05/18 03:38:56;;;;;;;;;;;;;;;23.11;65.89;98955.25;2075715;28;20412;-50
2022/05/18 03:39:56;;;;;;;;;;;;;;;23.10;65.53;98961.72;2076538;28;20640;-49
2022/05/18 03:40:58;;;;;;;;;;;;;;;23.09;65.78;98945.69;2074947;28;19936;-51
2022/05/18 03:41:59;;;;;;;;;;;;;;;23.09;65.88;98956.50;2076400;28;19931;-50
2022/05/18 03:43:01;;;;;;;;;;;;;;;23.07;66.11;98954.06;2075654;28;19987;-52
2022/05/18 03:44:02;;;;;;;;;;;;;;;23.09;65.83;98957.34;2076526;28;19925;-50
2022/05/18 03:45:03;;;;;;;;;;;;;;;23.10;65.91;98952.78;2073978;28;20065;-52
2022/05/18 03:46:06;;;;;;;;;;;;;;;23.09;65.94;98954.63;2077127;28;20398;-53
2022/05/18 03:47:09;;;;;;;;;;;;;;;23.09;65.99;98951.09;2074736;28;19940;-48
2022/05/18 03:48:11;;;;;;;;;;;;;;;23.08;65.55;98954.88;2077649;28;20427;-50
2022/05/18 03:49:12;;;;;;;;;;;;;;;23.09;65.66;98964.63;2075002;28;19961;-49
2022/05/18 03:50:13;;;;;;;;;;;;;;;23.08;66.09;98957.56;2076879;28;19975;-51
2022/05/18 03:51:16;;;;;;;;;;;;;;;23.07;66.16;98953.22;2074605;28;20306;-50
2022/05/18 03:52:16;;;;;;;;;;;;;;;23.06;66.03;98960.50;2074933;28;20300;-50
2022/05/18 03:53:18;;;;;;;;;;;;;;;23.07;65.88;98970.28;2075740;28;19964;-52
2022/05/18 03:54:18;;;;;;;;;;;;;;;23.08;65.62;98963.81;2076868;28;19932;-49
2022/05/18 03:55:20;;;;;;;;;;;;;;;23.07;65.92;98962.16;2076232;28;19933;-51
2022/05/18 03:56:20;;;;;;;;;;;;;;;23.06;65.96;98957.78;2075751;28;19933;-50
2022/05/18 03:57:22;;;;;;;;;;;;;;;23.07;65.81;98964.06;2076148;28;19936;-51
2022/05/18 03:58:23;;;;;;;;;;;;;;;23.06;66.24;98956.97;2075768;28;19995;-50
2022/05/18 03:59:26;;;;;;;;;;;;;;;23.06;65.99;98957.78;2076066;28;19937;-51
2022/05/18 04:00:26;;;;;;;;;;;;;;;23.06;65.83;98962.38;2072977;28;19926;-51
2022/05/18 04:01:29;;;;;;;;;;;;;;;23.08;65.70;98961.09;2076299;28;19963;-50
2022/05/18 04:02:30;;;;;;;;;;;;;;;23.08;65.84;98960.28;2075309;28;19932;-49
2022/05/18 04:03:31;;;;;;;;;;;;;;;23.11;65.74;98965.25;2076798;28;19925;-47
2022/05/18 04:04:32;;;;;;;;;;;;;;;23.09;65.52;98967.34;2076403;28;19929;-52
2022/05/18 04:05:34;;;;;;;;;;;;;;;23.06;65.95;98962.38;2076006;28;20342;-52
2022/05/18 04:06:34;;;;;;;;;;;;;;;23.08;65.52;98961.09;2075039;28;19968;-49
2022/05/18 04:07:36;;;;;;;;;;;;;;;23.03;66.21;98952.84;2076286;28;19936;-49
2022/05/18 04:08:37;;;;;;;;;;;;;;;23.03;66.19;98958.25;2075667;28;19963;-48
2022/05/18 04:09:38;;;;;;;;;;;;;;;23.04;66.04;98969.88;2075475;28;19925;-51
2022/05/18 04:10:39;;;;;;;;;;;;;;;23.04;65.65;98961.78;2075326;28;19936;-52
2022/05/18 04:11:40;;;;;;;;;;;;;;;23.04;66.09;98962.63;2076324;28;19929;-52
2022/05/18 04:12:41;;;;;;;;;;;;;;;23.05;66.07;98963.44;2076098;28;20040;-48
2022/05/18 04:13:43;;;;;;;;;;;;;;;23.03;65.75;98963.66;2075942;28;19933;-49
2022/05/18 04:14:44;;;;;;;;;;;;;;;23.03;65.79;98968.25;2074985;28;19983;-52
2022/05/18 04:15:45;;;;;;;;;;;;;;;23.06;65.58;98962.38;2076572;28;19933;-52
2022/05/18 04:16:49;;;;;;;;;;;;;;;23.07;65.82;98964.88;2074616;28;19925;-49
2022/05/18 04:17:50;;;;;;;;;;;;;;;23.06;65.53;98967.78;2076483;28;19947;-52
2022/05/18 04:18:51;;;;;;;;;;;;;;;23.04;65.68;98973.44;2074763;28;19933;-50
2022/05/18 04:19:53;;;;;;;;;;;;;;;23.05;65.65;98975.09;2074426;28;19941;-51
2022/05/18 04:20:54;;;;;;;;;;;;;;;23.07;65.94;98975.69;2075936;28;19968;-49
2022/05/18 04:21:56;;;;;;;;;;;;;;;23.08;65.40;98971.09;2075198;28;19960;-51
2022/05/18 04:22:56;;;;;;;;;;;;;;;23.11;65.56;98976.88;2072931;28;19972;-48
2022/05/18 04:23:58;;;;;;;;;;;;;;;23.13;65.55;98979.38;2074011;28;19936;-51
2022/05/18 04:25:01;;;;;;;;;;;;;;;23.12;65.31;98983.97;2073822;28;19933;-52
2022/05/18 04:26:03;;;;;;;;;;;;;;;23.14;65.65;98978.31;2076451;28;19929;-54
2022/05/18 04:27:05;;;;;;;;;;;;;;;23.16;65.68;98978.94;2076076;28;19937;-49
2022/05/18 04:28:07;;;;;;;;;;;;;;;23.17;65.77;98981.38;2073429;28;19929;-51
2022/05/18 04:29:08;;;;;;;;;;;;;;;23.15;65.16;98977.25;2075822;28;20657;-52
2022/05/18 04:30:10;;;;;;;;;;;;;;;23.15;65.25;98983.50;2075844;28;19925;-52
2022/05/18 04:31:11;;;;;;;;;;;;;;;23.17;64.98;98980.56;2072018;28;20499;-50
2022/05/18 04:32:13;;;;;;;;;;;;;;;23.16;65.00;98981.63;2073379;28;19941;-49
2022/05/18 04:33:18;;;;;;;;;;;;;;;23.16;65.00;98985.16;2076919;28;19979;-50
2022/05/18 04:34:18;;;;;;;;;;;;;;;23.16;64.75;98989.75;2075714;28;21023;-52
2022/05/18 04:35:21;;;;;;;;;;;;;;;23.16;64.77;98985.16;2075869;28;19937;-51
2022/05/18 04:36:22;;;;;;;;;;;;;;;23.16;64.79;98985.16;2075305;28;19929;-52
2022/05/18 04:37:23;;;;;;;;;;;;;;;23.16;64.82;98985.16;2073181;28;19931;-53
2022/05/18 04:38:24;;;;;;;;;;;;;;;23.16;64.91;98989.75;2071813;28;20385;-51
2022/05/18 04:39:25;;;;;;;;;;;;;;;23.14;64.59;98987.25;2075733;28;19972;-49
2022/05/18 04:40:27;;;;;;;;;;;;;;;23.14;65.07;98986.44;2077115;28;20407;-52
2022/05/18 04:41:27;;;;;;;;;;;;;;;23.14;64.65;98992.66;2077054;28;19929;-53
2022/05/18 04:42:29;;;;;;;;;;;;;;;23.13;64.89;98991.03;2075338;28;20414;-51
2022/05/18 04:43:32;;;;;;;;;;;;;;;23.14;64.70;98986.44;2076332;28;19925;-56
2022/05/18 04:44:33;;;;;;;;;;;;;;;23.12;64.67;98988.53;2078312;28;19925;-48
2022/05/18 04:45:34;;;;;;;;;;;;;;;23.13;64.84;98992.91;2078084;28;19960;-51
2022/05/18 04:46:35;;;;;;;;;;;;;;;23.14;64.40;98991.84;2078256;28;19936;-49
2022/05/18 04:47:37;;;;;;;;;;;;;;;23.14;64.57;99002.66;2077825;28;19976;-51
2022/05/18 04:48:41;;;;;;;;;;;;;;;23.13;64.61;98996.44;2076515;28;20123;-52
2022/05/18 04:49:41;;;;;;;;;;;;;;;23.09;64.75;99002.50;2076524;28;20292;-51
2022/05/18 04:50:43;;;;;;;;;;;;;;;23.08;64.86;98998.97;2075435;28;19952;-50
2022/05/18 04:51:43;;;;;;;;;;;;;;;23.10;64.40;99002.31;2074991;28;20662;-51
2022/05/18 04:52:45;;;;;;;;;;;;;;;23.12;64.36;98999.34;2076817;28;19933;-53
2022/05/18 04:53:46;;;;;;;;;;;;;;;23.11;64.56;99000.41;2070600;28;20420;-52
2022/05/18 04:54:47;;;;;;;;;;;;;;;23.11;64.38;99003.13;2076333;28;19972;-50
2022/05/18 04:55:49;;;;;;;;;;;;;;;23.10;64.47;99007.72;2075999;28;19929;-50
2022/05/18 04:56:49;;;;;;;;;;;;;;;23.10;64.44;99006.88;2075862;28;19933;-54
2022/05/18 04:57:51;;;;;;;;;;;;;;;23.09;64.28;99008.75;2074786;28;19929;-51
2022/05/18 04:58:52;;;;;;;;;;;;;;;23.12;64.48;99010.16;2075280;28;20485;-51
2022/05/18 04:59:53;;;;;;;;;;;;;;;23.12;64.27;99012.88;2076195;28;19929;-51
2022/05/18 05:00:57;;;;;;;;;;;;;;;23.11;64.37;99009.34;2077056;28;19933;-50
2022/05/18 05:01:59;;;;;;;;;;;;;;;23.11;64.37;99013.94;2072401;28;19936;-50
2022/05/18 05:03:01;;;;;;;;;;;;;;;23.08;64.25;99012.50;2071266;28;19929;-50
2022/05/18 05:04:02;;;;;;;;;;;;;;;23.11;64.35;99013.94;2073429;28;19925;-52
2022/05/18 05:05:05;;;;;;;;;;;;;;;23.10;64.21;99015.00;2075028;28;19941;-53
2022/05/18 05:06:07;;;;;;;;;;;;;;;23.08;64.39;99015.22;2074386;28;19987;-54
2022/05/18 05:07:08;;;;;;;;;;;;;;;23.10;64.16;99015.00;2074810;28;19932;-52
2022/05/18 05:08:10;;;;;;;;;;;;;;;23.10;64.07;99017.72;2074218;28;19929;-51
2022/05/18 05:09:11;;;;;;;;;;;;;;;23.10;64.14;99017.72;2074121;28;19932;-50
2022/05/18 05:10:12;;;;;;;;;;;;;;;23.08;64.17;99017.09;2076622;28;19970;-53
2022/05/18 05:11:14;;;;;;;;;;;;;;;23.07;64.38;99020.88;2076335;28;20326;-51
2022/05/18 05:12:14;;;;;;;;;;;;;;;23.08;64.22;99025.22;2076542;28;19929;-53
2022/05/18 05:13:16;;;;;;;;;;;;;;;23.08;64.21;99030.63;2076486;28;20015;-50
2022/05/18 05:14:17;;;;;;;;;;;;;;;23.07;64.18;99024.38;2076113;28;20439;-52
2022/05/18 05:15:18;;;;;;;;;;;;;;;23.06;64.16;99025.44;2074801;28;19936;-49
2022/05/18 05:16:19;;;;;;;;;;;;;;;23.07;64.32;99034.41;2076248;28;19961;-53
2022/05/18 05:17:21;;;;;;;;;;;;;;;23.03;64.24;99034.00;2075331;28;19956;-52
2022/05/18 05:18:22;;;;;;;;;;;;;;;23.00;64.46;99034.44;2076457;28;19979;-52
2022/05/18 05:19:24;;;;;;;;;;;;;;;23.00;63.13;99039.03;2076718;28;20040;-52
2022/05/18 05:20:26;;;;;;;;;;;;;;;22.97;64.12;99030.28;2071917;28;19933;-56
2022/05/18 05:21:26;;;;;;;;;;;;;;;22.98;63.04;99036.53;2073556;28;19925;-50
2022/05/18 05:22:28;;;;;;;;;;;;;;;22.95;62.33;99035.09;2073967;28;19929;-54
2022/05/18 05:23:29;;;;;;;;;;;;;;;22.95;63.20;99037.81;2074974;28;19968;-53
2022/05/18 05:24:30;;;;;;;;;;;;;;;22.93;62.96;99041.78;2075830;28;20432;-48
2022/05/18 05:25:32;;;;;;;;;;;;;;;22.95;63.07;99043.22;2076020;28;19972;-48